Blue Grass Airport
KLEX : rendu visible

Aérodrome :











RETROUVEZ-NOUS SUR...

 
LOGIN :

S'inscrire | Disclaimer

   EN    FR    IT 

 









Légende :    VFR   VFR Marginal   IFR   IFR Intensif   IFR Très Intensif
Visi : 
Plafond : 
>= 8 km
>= 3000ft
5 à 8 km
1000 à 3000 ft
1500m à 5 km
500 à 1000 ft
800 à 1500m
200 à 500 ft
< 800m
< 200 ft
Symboles :   Orages  Brouillard  Fortes neiges  Fortes précipitations  Vent > 20 kt






- Altitude de l'aérodrome : 979 ft
- Code IATA : LEX


KLEX - Blue Grass

DERNIER METAR :
  • 200354Z 32009KT 10SM OVC018 M08/M13 A3042 RMK AO2 SLP315 T10781133 $

METARs EXPIRÉS :
  • 200254Z 34011KT 10SM OVC019 M08/M13 A3041 RMK AO2 SLP312 60000 T10781133 51014 $
  • 200154Z 32011KT 10SM OVC019 M08/M13 A3041 RMK AO2 SNE18 SLP311 P0000 T10781133 $
  • 200054Z 30010KT 9SM -SN OVC020 M07/M12 A3039 RMK AO2 SNB48 SLP305 P0000 T10671122 $

TAF KLEX
Valide du 20 à 02h jusqu'au 21 à 00h UTC


200227Z 2002/2024 32011KT P6SM BKN019
TEMPO 2003/2007 6SM -SN BKN019
FM200700 33007KT P6SM BKN025
FM201400 36006KT P6SM SCT030 BKN250



MET'MAP, la Météo Aéronautique d'un coup d'oeil ! - Copyright ORBIFLY Décembre 2007 - Disclaimer

ORBIFLY MET'MAP TEAM :

Programmation & Développement : Alexandra Zaïnal
Sur une idée originale de : Baudouin d'Aumeries
Assistance à la programmation : Marc-Olivier Méhu
Soutien technique & logistique : Manuel Goepfert

Contact : metmap@orbifly.com




SOURCES & CREDITS :

   NOAA       Earth
Advisory